createdAt,value
2022-08-26T00:01:56.701Z,18.30
2022-08-26T00:06:59.695Z,21.00
2022-08-26T00:12:02.706Z,19.70
2022-08-26T00:17:05.720Z,22.00
2022-08-26T00:22:11.620Z,18.00
2022-08-26T00:27:14.523Z,16.60
2022-08-26T00:32:17.248Z,15.70
2022-08-26T00:37:20.516Z,20.00
2022-08-26T00:42:23.308Z,17.90
2022-08-26T00:47:34.430Z,23.40
2022-08-26T00:52:37.941Z,19.80
2022-08-26T00:57:42.281Z,20.00
2022-08-26T01:02:48.179Z,17.40
2022-08-26T01:07:52.379Z,12.90
2022-08-26T01:13:00.661Z,13.20
2022-08-26T01:18:06.187Z,22.20
2022-08-26T01:23:11.745Z,14.40
2022-08-26T01:28:21.785Z,18.80
2022-08-26T01:33:40.027Z,17.50
2022-08-26T01:38:45.519Z,12.70
2022-08-26T01:43:52.875Z,10.30
2022-08-26T01:48:58.694Z,14.00
2022-08-26T01:54:02.040Z,8.90
2022-08-26T01:59:09.360Z,9.70
2022-08-26T02:04:24.462Z,9.20
2022-08-26T02:09:27.378Z,7.70
2022-08-26T02:14:34.793Z,25.30
2022-08-26T02:19:41.985Z,13.30
2022-08-26T02:25:16.270Z,11.90
2022-08-26T02:30:26.141Z,9.70
2022-08-26T02:35:33.760Z,11.70
2022-08-26T02:40:41.091Z,11.80
2022-08-26T02:45:44.943Z,13.20
2022-08-26T02:50:48.833Z,12.50
2022-08-26T02:55:51.836Z,12.10
2022-08-26T03:00:54.761Z,13.10
2022-08-26T03:05:58.162Z,14.00
2022-08-26T03:11:01.650Z,16.70
2022-08-26T03:16:06.045Z,13.70
2022-08-26T03:21:12.077Z,14.70
2022-08-26T03:26:16.207Z,13.80
2022-08-26T03:31:19.022Z,20.30
2022-08-26T03:36:27.749Z,17.90
2022-08-26T03:41:33.007Z,14.00
2022-08-26T03:46:35.882Z,12.00
2022-08-26T03:51:39.113Z,15.80
2022-08-26T03:56:42.002Z,7.50
2022-08-26T04:01:45.429Z,13.10
2022-08-26T04:06:48.488Z,6.80
2022-08-26T04:11:52.898Z,8.10
2022-08-26T04:16:56.341Z,10.80
2022-08-26T04:22:00.180Z,9.80
2022-08-26T04:27:03.792Z,14.70
2022-08-26T04:32:08.874Z,10.20
2022-08-26T04:37:13.309Z,15.30
2022-08-26T04:42:19.950Z,13.10
2022-08-26T04:47:32.206Z,15.00
2022-08-26T04:52:36.904Z,11.70
2022-08-26T04:57:40.664Z,17.50
2022-08-26T05:02:43.839Z,12.20
2022-08-26T05:07:46.618Z,14.70
2022-08-26T05:12:49.805Z,13.80
2022-08-26T05:17:53.089Z,13.30
2022-08-26T05:22:55.818Z,14.70
2022-08-26T05:27:58.522Z,16.60
2022-08-26T05:33:01.983Z,21.40
2022-08-26T05:38:12.470Z,13.60
2022-08-26T05:43:17.080Z,13.40
2022-08-26T05:48:24.417Z,17.90
2022-08-26T05:53:27.924Z,14.80
2022-08-26T05:58:31.056Z,16.00
2022-08-26T06:03:37.487Z,13.90
2022-08-26T06:08:40.991Z,8.40
2022-08-26T06:13:44.827Z,11.60
2022-08-26T06:18:48.451Z,9.80
2022-08-26T06:24:12.447Z,12.00
2022-08-26T06:29:24.340Z,11.20
2022-08-26T06:34:29.858Z,11.60
2022-08-26T06:39:34.176Z,8.90
2022-08-26T06:44:37.187Z,11.00
2022-08-26T06:49:44.293Z,13.70
2022-08-26T06:54:47.616Z,11.50
2022-08-26T06:59:51.185Z,11.00
2022-08-26T07:04:54.096Z,10.60
2022-08-26T07:09:59.971Z,10.40
2022-08-26T07:15:03.024Z,7.70
2022-08-26T07:20:08.532Z,13.10
2022-08-26T07:25:11.536Z,12.20
2022-08-26T07:30:15.007Z,10.10
2022-08-26T07:35:18.204Z,8.00
2022-08-26T07:40:22.397Z,10.10
2022-08-26T07:45:25.862Z,7.40
2022-08-26T07:50:49.504Z,9.00
2022-08-26T07:55:52.027Z,9.30
2022-08-26T08:00:55.351Z,7.70
2022-08-26T08:05:58.079Z,8.70
2022-08-26T08:11:01.551Z,11.50
2022-08-26T08:16:05.885Z,7.70
2022-08-26T08:21:22.084Z,9.70
2022-08-26T08:26:27.718Z,7.50
2022-08-26T08:31:55.864Z,9.90
2022-08-26T08:36:58.082Z,8.50
2022-08-26T08:42:19.139Z,8.10
2022-08-26T08:47:34.296Z,9.50
2022-08-26T08:52:39.245Z,11.10
2022-08-26T08:58:03.789Z,7.90
2022-08-26T09:03:19.741Z,10.50
2022-08-26T09:08:28.505Z,7.50
2022-08-26T09:13:31.749Z,8.70
2022-08-26T09:18:57.372Z,9.50
2022-08-26T09:24:00.913Z,8.20
2022-08-26T09:29:16.083Z,9.00
2022-08-26T09:34:19.089Z,9.50
2022-08-26T09:39:27.859Z,9.20
2022-08-26T09:44:32.054Z,6.70
2022-08-26T09:49:41.160Z,4.70
2022-08-26T09:54:46.111Z,8.50
2022-08-26T09:59:49.691Z,8.60
2022-08-26T10:04:55.789Z,9.30
2022-08-26T10:09:59.477Z,7.80
2022-08-26T10:15:10.650Z,9.30
2022-08-26T10:20:24.068Z,7.10
2022-08-26T10:25:33.502Z,8.70
2022-08-26T10:31:00.860Z,7.00
2022-08-26T10:36:30.272Z,7.60
2022-08-26T10:41:40.912Z,7.20
2022-08-26T10:46:58.983Z,6.90
2022-08-26T10:52:19.859Z,7.00
2022-08-26T10:57:34.117Z,9.50
2022-08-26T11:02:47.085Z,7.50
2022-08-26T11:08:13.781Z,7.80
2022-08-26T11:13:16.547Z,6.20
2022-08-26T11:18:41.230Z,9.00
2022-08-26T11:23:50.252Z,7.50
2022-08-26T11:28:53.679Z,9.40
2022-08-26T11:34:39.438Z,7.80
2022-08-26T11:39:54.967Z,6.60
2022-08-26T11:45:03.543Z,9.80
2022-08-26T11:50:12.890Z,5.30
2022-08-26T11:55:17.290Z,8.00
2022-08-26T12:00:33.291Z,8.70
2022-08-26T12:05:44.582Z,6.60
2022-08-26T12:10:50.848Z,5.80
2022-08-26T12:15:57.310Z,6.30
2022-08-26T12:21:24.406Z,6.40
2022-08-26T12:26:35.338Z,6.80
2022-08-26T12:31:44.130Z,10.20
2022-08-26T12:36:55.950Z,3.70
2022-08-26T12:42:03.296Z,6.40
2022-08-26T12:47:40.080Z,5.80
2022-08-26T12:53:12.490Z,7.80
2022-08-26T12:58:15.646Z,5.10
2022-08-26T13:03:46.153Z,10.40
2022-08-26T13:09:10.360Z,11.80
2022-08-26T13:14:23.834Z,5.40
2022-08-26T13:19:27.346Z,8.90
2022-08-26T13:24:34.533Z,5.70
2022-08-26T13:29:37.542Z,5.10
2022-08-26T13:34:40.630Z,7.20
2022-08-26T13:39:43.560Z,6.90
2022-08-26T13:44:50.860Z,8.40
2022-08-26T13:49:53.870Z,6.70
2022-08-26T13:54:56.881Z,8.90
2022-08-26T13:59:59.887Z,10.70
2022-08-26T14:05:03.094Z,6.60
2022-08-26T14:10:07.234Z,7.90
2022-08-26T14:15:10.832Z,8.40
2022-08-26T14:20:19.083Z,7.20
2022-08-26T14:25:22.907Z,7.70
2022-08-26T14:30:26.014Z,7.40
2022-08-26T14:35:31.070Z,9.10
2022-08-26T14:40:37.534Z,14.10
2022-08-26T14:45:44.360Z,7.40
2022-08-26T14:50:47.365Z,7.90
2022-08-26T14:55:50.688Z,6.40
2022-08-26T15:00:53.581Z,8.90
2022-08-26T15:05:56.955Z,7.70
2022-08-26T15:10:59.902Z,6.40
2022-08-26T15:16:03.161Z,4.80
2022-08-26T15:21:07.505Z,8.60
2022-08-26T15:26:12.174Z,8.10
2022-08-26T15:31:15.663Z,7.00
2022-08-26T15:36:18.835Z,9.70
2022-08-26T15:41:22.407Z,5.50
2022-08-26T15:46:25.525Z,5.90
2022-08-26T15:51:36.011Z,6.60
2022-08-26T15:56:51.901Z,9.00
2022-08-26T16:01:56.229Z,5.90
2022-08-26T16:06:59.602Z,7.90
2022-08-26T16:12:02.866Z,9.50
2022-08-26T16:17:06.024Z,9.60
2022-08-26T16:22:09.395Z,7.80
2022-08-26T16:27:13.370Z,6.20
2022-08-26T16:32:16.376Z,8.80
2022-08-26T16:37:19.382Z,9.50
2022-08-26T16:42:22.880Z,8.20
2022-08-26T16:47:26.590Z,9.10
2022-08-26T16:52:30.351Z,13.60
2022-08-26T16:57:37.558Z,8.70
2022-08-26T17:02:41.961Z,11.50
2022-08-26T17:07:45.002Z,8.30
2022-08-26T17:12:48.315Z,11.60
2022-08-26T17:17:52.656Z,10.30
2022-08-26T17:22:56.624Z,10.00
2022-08-26T17:27:59.779Z,11.10
2022-08-26T17:33:11.046Z,13.50
2022-08-26T17:38:14.199Z,11.70
2022-08-26T17:43:17.965Z,8.90
2022-08-26T17:48:20.658Z,10.10
2022-08-26T17:53:24.711Z,8.50
2022-08-26T17:58:27.456Z,9.40
2022-08-26T18:03:32.321Z,11.90
2022-08-26T18:08:35.212Z,8.70
2022-08-26T18:13:38.595Z,11.70
2022-08-26T18:18:53.581Z,12.50
2022-08-26T18:23:57.019Z,8.50
2022-08-26T18:29:00.523Z,9.10
2022-08-26T18:34:03.950Z,8.20
2022-08-26T18:39:08.425Z,13.30
2022-08-26T18:44:13.980Z,17.00
2022-08-26T18:49:19.086Z,10.00
2022-08-26T18:54:22.554Z,12.60
2022-08-26T18:59:29.493Z,39.70
2022-08-26T19:04:34.115Z,19.50
2022-08-26T19:09:37.179Z,18.40
2022-08-26T19:14:41.325Z,13.60
2022-08-26T19:19:44.068Z,14.70
2022-08-26T19:24:48.347Z,11.80
2022-08-26T19:29:51.377Z,12.40
2022-08-26T19:34:54.456Z,15.00
2022-08-26T19:39:57.303Z,11.90
2022-08-26T19:45:24.346Z,15.40
2022-08-26T19:50:30.711Z,15.10
2022-08-26T19:55:33.846Z,12.40
2022-08-26T20:00:39.853Z,16.00
2022-08-26T20:05:42.566Z,16.10
2022-08-26T20:10:46.807Z,10.70
2022-08-26T20:15:49.576Z,12.20
2022-08-26T20:21:12.250Z,13.60
2022-08-26T20:26:15.153Z,12.90
2022-08-26T20:31:19.584Z,11.80
2022-08-26T20:36:26.993Z,13.50
2022-08-26T20:41:30.019Z,12.50
2022-08-26T20:46:34.850Z,9.90
2022-08-26T20:51:37.970Z,12.30
2022-08-26T20:56:40.979Z,13.90
2022-08-26T21:01:44.515Z,13.70
2022-08-26T21:06:52.438Z,12.80
2022-08-26T21:11:56.347Z,13.60
2022-08-26T21:16:59.867Z,13.00
2022-08-26T21:22:02.773Z,15.40
2022-08-26T21:27:05.676Z,14.10
2022-08-26T21:32:08.724Z,12.10
2022-08-26T21:37:16.666Z,11.80
2022-08-26T21:42:21.023Z,11.20
2022-08-26T21:47:24.718Z,13.90
2022-08-26T21:52:27.834Z,13.00
2022-08-26T21:57:32.629Z,13.30
2022-08-26T22:02:37.192Z,12.00
2022-08-26T22:07:40.283Z,13.70
2022-08-26T22:12:43.488Z,14.60
2022-08-26T22:17:46.805Z,10.70
2022-08-26T22:22:49.707Z,10.30
2022-08-26T22:27:52.817Z,8.40
2022-08-26T22:32:55.823Z,10.90
2022-08-26T22:37:59.860Z,10.90
2022-08-26T22:43:04.810Z,8.10
2022-08-26T22:48:08.173Z,13.30
2022-08-26T22:53:11.949Z,11.20
2022-08-26T22:58:17.516Z,12.80
2022-08-26T23:03:20.855Z,9.10
2022-08-26T23:08:27.623Z,13.30
2022-08-26T23:13:30.635Z,9.70
2022-08-26T23:18:33.645Z,13.50
2022-08-26T23:23:38.107Z,14.90
2022-08-26T23:28:41.095Z,14.80
2022-08-26T23:34:02.742Z,12.90
2022-08-26T23:39:06.356Z,8.60
2022-08-26T23:44:09.257Z,11.70
2022-08-26T23:49:12.266Z,11.10
2022-08-26T23:54:16.192Z,15.00
2022-08-26T23:59:19.301Z,10.70
